createdAt,value
2022-11-04T00:05:36.036Z,20.80
2022-11-04T00:16:00.743Z,19.80
2022-11-04T00:26:25.381Z,18.30
2022-11-04T00:36:31.665Z,20.20
2022-11-04T00:46:37.939Z,19.80
2022-11-04T00:56:44.703Z,17.80
2022-11-04T01:06:51.003Z,18.40
2022-11-04T01:16:57.307Z,19.60
2022-11-04T01:27:03.573Z,18.20
2022-11-04T01:37:09.836Z,19.50
2022-11-04T01:47:18.929Z,21.00
2022-11-04T01:57:34.677Z,18.10
2022-11-04T02:07:40.959Z,17.50
2022-11-04T02:18:05.820Z,16.90
2022-11-04T02:28:28.932Z,17.40
2022-11-04T02:38:56.761Z,16.70
2022-11-04T02:49:16.155Z,16.00
2022-11-04T02:59:34.259Z,15.80
2022-11-04T03:09:43.344Z,16.10
2022-11-04T03:19:58.225Z,15.50
2022-11-04T03:30:07.350Z,15.90
2022-11-04T03:40:14.067Z,16.20
2022-11-04T03:50:30.552Z,16.50
2022-11-04T04:00:40.960Z,17.20
2022-11-04T04:11:00.903Z,16.90
2022-11-04T04:21:10.295Z,16.90
2022-11-04T04:31:40.361Z,17.40
2022-11-04T04:42:07.712Z,16.80
2022-11-04T04:52:13.013Z,14.80
2022-11-04T05:02:19.368Z,14.40
2022-11-04T05:12:26.250Z,15.70
2022-11-04T05:22:32.569Z,15.10
2022-11-04T05:32:38.867Z,14.90
2022-11-04T05:42:45.164Z,16.20
2022-11-04T05:52:51.444Z,14.60
2022-11-04T06:02:58.652Z,15.00
2022-11-04T06:13:05.045Z,14.80
2022-11-04T06:23:11.308Z,14.00
2022-11-04T06:33:17.607Z,13.90
2022-11-04T06:43:23.864Z,13.90
2022-11-04T06:53:31.075Z,12.70
2022-11-04T07:03:37.347Z,12.20
2022-11-04T07:13:43.612Z,12.90
2022-11-04T07:23:49.896Z,12.90
2022-11-04T07:33:56.168Z,14.50
2022-11-04T07:44:06.479Z,14.00
2022-11-04T07:54:12.785Z,13.90
2022-11-04T08:04:19.098Z,12.90
2022-11-04T08:14:25.470Z,13.80
2022-11-04T08:24:31.806Z,13.60
2022-11-04T08:34:38.417Z,13.40
2022-11-04T08:44:44.771Z,14.60
2022-11-04T08:54:56.192Z,13.90
2022-11-04T09:05:03.588Z,14.90
2022-11-04T09:15:10.278Z,14.50
2022-11-04T09:25:16.535Z,13.60
2022-11-04T09:35:22.856Z,13.90
2022-11-04T09:45:31.265Z,14.00
2022-11-04T09:56:02.891Z,15.40
2022-11-04T10:06:57.485Z,13.60
2022-11-04T10:17:07.660Z,13.10
2022-11-04T10:27:18.783Z,11.60
2022-11-04T10:37:26.802Z,12.30
2022-11-04T10:47:44.444Z,13.10
2022-11-04T10:57:50.737Z,12.40
2022-11-04T11:07:59.150Z,13.80
2022-11-04T11:18:18.303Z,14.10
2022-11-04T11:28:26.130Z,13.40
2022-11-04T11:38:34.477Z,13.60
2022-11-04T11:48:44.088Z,13.90
2022-11-04T12:09:34.012Z,13.40
2022-11-04T12:20:13.306Z,11.80
2022-11-04T12:30:30.034Z,11.70
2022-11-04T12:40:47.699Z,10.90
2022-11-04T12:51:39.971Z,9.60
2022-11-04T13:02:11.768Z,11.60
2022-11-04T13:12:27.275Z,11.20
2022-11-04T13:22:35.910Z,11.40
2022-11-04T13:32:58.426Z,11.50
2022-11-04T13:43:40.428Z,10.90
2022-11-04T13:53:53.078Z,11.50
2022-11-04T14:04:16.623Z,25.70
2022-11-04T14:14:21.891Z,21.55
2022-11-04T14:24:29.327Z,30.10
2022-11-04T14:34:38.881Z,23.20
2022-11-04T14:44:49.840Z,20.60
2022-11-04T14:54:59.811Z,37.00
2022-11-04T15:05:06.324Z,32.60
2022-11-04T15:15:36.020Z,29.90
2022-11-04T15:25:47.451Z,29.90
2022-11-04T15:35:54.025Z,30.90
2022-11-04T15:46:00.421Z,29.60
2022-11-04T15:56:08.219Z,30.90
2022-11-04T16:06:14.876Z,33.60
2022-11-04T16:16:26.684Z,32.00
2022-11-04T16:26:39.182Z,37.00
2022-11-04T16:36:45.419Z,42.10
2022-11-04T16:46:51.694Z,37.10
2022-11-04T16:56:58.305Z,40.40
2022-11-04T17:07:04.740Z,42.40
2022-11-04T17:17:11.433Z,37.60
2022-11-04T17:27:18.091Z,31.10
2022-11-04T17:37:24.366Z,27.70
2022-11-04T17:47:30.680Z,35.10
2022-11-04T17:57:36.994Z,29.00
2022-11-04T18:07:43.416Z,22.50
2022-11-04T18:17:51.425Z,26.20
2022-11-04T18:27:57.728Z,22.40
2022-11-04T18:38:03.995Z,26.30
2022-11-04T18:48:10.559Z,36.70
2022-11-04T18:58:17.009Z,27.80
2022-11-04T19:08:23.377Z,29.60
2022-11-04T19:18:30.002Z,26.30
2022-11-04T19:28:47.729Z,31.10
2022-11-04T19:38:55.649Z,31.90
2022-11-04T19:49:02.313Z,33.90
2022-11-04T19:59:10.281Z,32.50
2022-11-04T20:09:16.875Z,32.30
2022-11-04T20:19:23.525Z,31.30
2022-11-04T20:29:29.989Z,32.10
2022-11-04T20:39:36.335Z,33.80
2022-11-04T20:49:42.929Z,36.40
2022-11-04T20:59:49.195Z,36.30
2022-11-04T21:09:55.664Z,38.90
2022-11-04T21:20:01.966Z,34.90
2022-11-04T21:30:08.597Z,32.70
2022-11-04T21:40:15.084Z,29.20
2022-11-04T21:50:21.408Z,32.00
2022-11-04T22:00:27.702Z,29.50
2022-11-04T22:10:33.983Z,30.80
2022-11-04T22:20:40.297Z,29.50
2022-11-04T22:30:46.610Z,26.70
2022-11-04T22:40:59.866Z,23.70
2022-11-04T22:51:06.776Z,35.50
2022-11-04T23:01:16.006Z,36.60
2022-11-04T23:11:43.918Z,28.10
2022-11-04T23:22:08.670Z,21.50
2022-11-04T23:32:14.919Z,12.00
2022-11-04T23:42:22.386Z,10.00
2022-11-04T23:52:47.207Z,7.40
